createdAt,value
2017-09-02T00:01:44.842Z,89.40
2017-09-02T00:04:12.460Z,89.30
2017-09-02T00:06:40.091Z,89.50
2017-09-02T00:09:07.703Z,89.60
2017-09-02T00:11:35.321Z,89.20
2017-09-02T00:14:02.921Z,88.90
2017-09-02T00:16:30.538Z,88.90
2017-09-02T00:18:58.147Z,89.20
2017-09-02T00:21:25.755Z,89.70
2017-09-02T00:23:53.421Z,89.20
2017-09-02T00:26:21.058Z,89.90
2017-09-02T00:28:48.717Z,90.00
2017-09-02T00:31:16.342Z,90.20
2017-09-02T00:33:43.961Z,90.00
2017-09-02T00:36:11.613Z,89.90
2017-09-02T00:38:39.280Z,90.00
2017-09-02T00:41:06.895Z,90.00
2017-09-02T00:43:34.522Z,90.10
2017-09-02T00:46:02.125Z,90.00
2017-09-02T00:48:29.742Z,89.70
2017-09-02T00:50:57.355Z,89.70
2017-09-02T00:53:24.967Z,89.80
2017-09-02T00:55:53.147Z,89.80
2017-09-02T00:58:20.768Z,89.80
2017-09-02T01:00:48.402Z,89.40
2017-09-02T01:03:16.050Z,89.80
2017-09-02T01:05:43.739Z,90.00
2017-09-02T01:08:11.366Z,89.80
2017-09-02T01:10:38.992Z,90.00
2017-09-02T01:13:06.621Z,90.10
2017-09-02T01:15:34.256Z,90.10
2017-09-02T01:18:01.843Z,90.10
2017-09-02T01:20:29.441Z,90.30
2017-09-02T01:22:57.087Z,90.50
2017-09-02T01:25:24.727Z,90.20
2017-09-02T01:27:52.362Z,90.20
2017-09-02T01:30:25.781Z,90.40
2017-09-02T01:32:53.418Z,90.30
2017-09-02T01:35:21.033Z,90.40
2017-09-02T01:37:48.647Z,90.50
2017-09-02T01:40:16.322Z,90.40
2017-09-02T01:42:44.622Z,90.30
2017-09-02T01:45:12.271Z,90.40
2017-09-02T01:47:39.927Z,90.40
2017-09-02T01:50:07.539Z,90.40
2017-09-02T01:52:35.154Z,90.20
2017-09-02T01:55:02.849Z,90.40
2017-09-02T01:57:30.454Z,90.40
2017-09-02T01:59:58.079Z,90.40
2017-09-02T02:02:26.275Z,90.30
2017-09-02T02:04:53.899Z,90.20
2017-09-02T02:07:21.524Z,90.20
2017-09-02T02:09:49.158Z,90.20
2017-09-02T02:12:16.767Z,90.20
2017-09-02T02:14:44.395Z,90.30
2017-09-02T02:17:12.037Z,90.20
2017-09-02T02:19:39.673Z,90.30
2017-09-02T02:22:07.287Z,90.40
2017-09-02T02:24:34.901Z,90.40
2017-09-02T02:27:02.508Z,90.40
2017-09-02T02:29:30.100Z,90.60
2017-09-02T02:31:57.718Z,90.60
2017-09-02T02:34:25.351Z,90.50
2017-09-02T02:36:52.965Z,90.60
2017-09-02T02:39:20.594Z,90.50
2017-09-02T02:41:48.272Z,90.50
2017-09-02T02:44:15.898Z,90.30
2017-09-02T02:46:43.519Z,90.60
2017-09-02T02:49:11.129Z,90.50
2017-09-02T02:51:38.736Z,90.60
2017-09-02T02:54:06.363Z,90.60
2017-09-02T02:56:33.991Z,90.60
2017-09-02T02:59:01.620Z,90.80
2017-09-02T03:01:29.250Z,90.80
2017-09-02T03:03:56.881Z,90.80
2017-09-02T03:06:24.503Z,90.70
2017-09-02T03:11:42.640Z,90.80
2017-09-02T03:14:10.248Z,90.90
2017-09-02T03:16:37.846Z,90.80
2017-09-02T03:19:05.486Z,90.80
2017-09-02T03:21:33.123Z,90.80
2017-09-02T03:24:00.725Z,90.80
2017-09-02T03:26:28.354Z,90.90
2017-09-02T03:28:56.848Z,90.90
2017-09-02T03:31:24.531Z,90.80
2017-09-02T03:33:52.154Z,90.80
2017-09-02T03:36:19.771Z,90.90
2017-09-02T03:38:47.413Z,90.70
2017-09-02T03:41:15.073Z,90.80
2017-09-02T03:43:42.765Z,90.90
2017-09-02T03:46:10.438Z,91.10
2017-09-02T03:48:38.088Z,91.30
2017-09-02T03:51:05.695Z,91.10
2017-09-02T03:53:36.628Z,90.80
2017-09-02T03:56:04.225Z,90.70
2017-09-02T03:58:31.833Z,90.70
2017-09-02T04:00:59.442Z,90.80
2017-09-02T04:03:27.043Z,90.70
2017-09-02T04:05:54.692Z,90.60
2017-09-02T04:08:22.329Z,90.80
2017-09-02T04:10:49.987Z,90.60
2017-09-02T04:13:17.602Z,90.60
2017-09-02T04:15:45.213Z,90.70
2017-09-02T04:18:12.812Z,90.60
2017-09-02T04:20:40.407Z,90.80
2017-09-02T04:23:08.902Z,90.50
2017-09-02T04:25:36.501Z,90.60
2017-09-02T04:28:04.102Z,90.60
2017-09-02T04:30:31.698Z,90.70
2017-09-02T04:32:59.435Z,90.70
2017-09-02T04:35:27.047Z,90.70
2017-09-02T04:37:54.713Z,90.60
2017-09-02T04:40:23.195Z,90.40
2017-09-02T04:42:50.821Z,90.30
2017-09-02T04:45:18.472Z,90.40
2017-09-02T04:47:46.084Z,90.50
2017-09-02T04:50:13.706Z,90.70
2017-09-02T04:52:41.319Z,90.60
2017-09-02T04:55:09.852Z,90.70
2017-09-02T04:57:37.462Z,90.80
2017-09-02T05:00:05.085Z,90.90
2017-09-02T05:02:32.714Z,91.00
2017-09-02T05:05:00.335Z,91.10
2017-09-02T05:07:27.941Z,91.00
2017-09-02T05:09:55.551Z,91.10
2017-09-02T05:12:23.435Z,91.10
2017-09-02T05:14:51.060Z,91.00
2017-09-02T05:17:18.687Z,91.10
2017-09-02T05:19:46.315Z,91.00
2017-09-02T05:22:13.935Z,91.00
2017-09-02T05:24:41.531Z,91.00
2017-09-02T05:27:09.165Z,91.00
2017-09-02T05:29:36.779Z,90.90
2017-09-02T05:32:04.430Z,90.90
2017-09-02T05:34:32.057Z,90.90
2017-09-02T05:36:59.681Z,91.00
2017-09-02T05:39:27.306Z,91.10
2017-09-02T05:41:54.934Z,91.10
2017-09-02T05:44:22.605Z,91.10
2017-09-02T05:46:50.269Z,91.10
2017-09-02T05:49:17.903Z,90.90
2017-09-02T05:51:45.502Z,90.80
2017-09-02T05:54:13.102Z,90.80
2017-09-02T05:56:40.744Z,91.00
2017-09-02T05:59:08.381Z,90.90
2017-09-02T06:01:35.990Z,90.90
2017-09-02T06:04:03.620Z,90.60
2017-09-02T06:06:31.292Z,90.50
2017-09-02T06:08:59.892Z,90.70
2017-09-02T06:11:27.518Z,90.50
2017-09-02T06:13:55.142Z,90.50
2017-09-02T06:16:22.740Z,90.80
2017-09-02T06:18:50.345Z,90.40
2017-09-02T06:21:17.968Z,90.50
2017-09-02T06:23:46.050Z,90.60
2017-09-02T06:26:13.667Z,90.40
2017-09-02T06:28:41.268Z,90.30
2017-09-02T06:31:08.918Z,90.30
2017-09-02T06:33:36.539Z,90.00
2017-09-02T06:36:04.138Z,90.10
2017-09-02T06:38:31.759Z,90.10
2017-09-02T06:40:59.482Z,90.00
2017-09-02T06:43:27.112Z,89.80
2017-09-02T06:45:54.748Z,90.00
2017-09-02T06:48:22.484Z,90.00
2017-09-02T06:50:50.106Z,90.30
2017-09-02T06:56:08.926Z,90.30
2017-09-02T06:58:36.537Z,90.20
2017-09-02T07:01:04.157Z,90.10
2017-09-02T07:03:31.770Z,90.20
2017-09-02T07:05:59.422Z,90.10
2017-09-02T07:08:27.057Z,90.10
2017-09-02T07:10:54.806Z,90.10
2017-09-02T07:13:22.411Z,90.10
2017-09-02T07:15:50.046Z,90.00
2017-09-02T07:18:17.660Z,90.00
2017-09-02T07:20:45.266Z,89.80
2017-09-02T07:23:13.751Z,89.50
2017-09-02T07:25:41.390Z,89.70
2017-09-02T07:28:09.020Z,89.90
2017-09-02T07:30:36.620Z,89.80
2017-09-02T07:33:04.260Z,89.90
2017-09-02T07:35:31.856Z,89.70
2017-09-02T07:37:59.498Z,89.30
2017-09-02T07:40:27.122Z,88.80
2017-09-02T07:42:55.459Z,88.40
2017-09-02T07:45:23.107Z,87.90
2017-09-02T07:47:50.736Z,87.80
2017-09-02T07:50:18.373Z,87.70
2017-09-02T07:52:45.987Z,87.50
2017-09-02T07:58:04.277Z,85.70
2017-09-02T08:03:22.382Z,85.00
2017-09-02T08:05:50.013Z,83.60
2017-09-02T08:08:17.760Z,84.30
2017-09-02T08:10:45.390Z,84.00
2017-09-02T08:13:13.008Z,83.50
2017-09-02T08:15:40.626Z,82.90
2017-09-02T08:18:08.211Z,83.30
2017-09-02T08:20:35.796Z,83.40
2017-09-02T08:23:03.398Z,82.40
2017-09-02T08:25:31.006Z,82.50
2017-09-02T08:27:58.615Z,80.90
2017-09-02T08:30:27.010Z,80.80
2017-09-02T08:32:54.680Z,80.00
2017-09-02T08:35:22.283Z,80.70
2017-09-02T08:37:50.166Z,80.50
2017-09-02T08:40:17.853Z,81.00
2017-09-02T08:42:45.452Z,80.20
2017-09-02T08:45:13.072Z,80.70
2017-09-02T08:47:40.703Z,80.30
2017-09-02T08:50:08.372Z,78.10
2017-09-02T08:52:36.037Z,78.90
2017-09-02T08:55:03.711Z,78.70
2017-09-02T08:57:31.315Z,78.10
2017-09-02T08:59:58.953Z,76.50
2017-09-02T09:02:26.543Z,78.40
2017-09-02T09:04:54.180Z,75.60
2017-09-02T09:07:21.804Z,75.40
2017-09-02T09:09:49.422Z,76.80
2017-09-02T09:12:17.049Z,76.10
2017-09-02T09:14:44.667Z,75.10
2017-09-02T09:17:12.276Z,72.60
2017-09-02T09:19:39.897Z,74.80
2017-09-02T09:22:07.514Z,75.30
2017-09-02T09:24:35.967Z,74.10
2017-09-02T09:27:03.631Z,75.50
2017-09-02T09:29:31.241Z,74.50
2017-09-02T09:31:58.844Z,74.80
2017-09-02T09:34:26.496Z,71.40
2017-09-02T09:36:54.138Z,72.50
2017-09-02T09:39:21.773Z,73.90
2017-09-02T09:41:49.624Z,73.40
2017-09-02T09:44:17.341Z,74.10
2017-09-02T09:46:44.965Z,72.40
2017-09-02T09:49:12.770Z,70.10
2017-09-02T09:51:40.396Z,67.30
2017-09-02T09:54:08.046Z,66.90
2017-09-02T09:56:35.676Z,65.50
2017-09-02T09:59:03.638Z,65.70
2017-09-02T10:01:31.285Z,63.30
2017-09-02T10:03:58.925Z,63.00
2017-09-02T10:06:26.542Z,59.10
2017-09-02T10:08:54.609Z,60.30
2017-09-02T10:11:22.210Z,63.10
2017-09-02T10:13:49.813Z,61.80
2017-09-02T10:16:17.449Z,62.60
2017-09-02T10:18:46.317Z,58.10
2017-09-02T10:21:13.932Z,59.20
2017-09-02T10:23:41.538Z,59.10
2017-09-02T10:26:09.232Z,58.00
2017-09-02T10:28:36.876Z,56.90
2017-09-02T10:31:04.486Z,57.20
2017-09-02T10:33:32.064Z,57.40
2017-09-02T10:35:59.690Z,58.50
2017-09-02T10:38:27.295Z,56.00
2017-09-02T10:43:45.853Z,55.00
2017-09-02T10:46:13.489Z,56.90
2017-09-02T10:48:41.099Z,58.60
2017-09-02T10:51:08.898Z,56.30
2017-09-02T10:53:36.597Z,57.00
2017-09-02T10:56:06.068Z,58.20
2017-09-02T10:58:33.675Z,58.60
2017-09-02T11:01:01.316Z,56.10
2017-09-02T11:03:29.685Z,57.50
2017-09-02T11:05:57.296Z,57.40
2017-09-02T11:08:24.913Z,58.00
2017-09-02T11:10:52.513Z,59.10
2017-09-02T11:13:20.104Z,60.70
2017-09-02T11:15:47.762Z,61.40
2017-09-02T11:18:15.428Z,62.30
2017-09-02T11:20:43.041Z,60.70
2017-09-02T11:23:14.995Z,59.90
2017-09-02T11:25:42.648Z,58.10
2017-09-02T11:28:10.244Z,52.70
2017-09-02T11:30:37.862Z,52.60
2017-09-02T11:33:06.228Z,51.10
2017-09-02T11:35:33.844Z,50.40
2017-09-02T11:38:02.376Z,47.60
2017-09-02T11:40:30.856Z,47.80
2017-09-02T11:42:58.521Z,47.60
2017-09-02T11:45:26.121Z,47.50
2017-09-02T11:47:53.710Z,46.00
2017-09-02T11:50:21.392Z,48.40
2017-09-02T11:52:49.009Z,48.10
2017-09-02T11:55:16.628Z,48.90
2017-09-02T11:57:44.405Z,50.10
2017-09-02T12:00:12.047Z,51.50
2017-09-02T12:02:39.674Z,51.60
2017-09-02T12:05:14.666Z,46.50
2017-09-02T12:07:42.310Z,46.60
2017-09-02T12:10:10.318Z,44.80
2017-09-02T12:12:37.916Z,42.30
2017-09-02T12:15:05.576Z,43.00
2017-09-02T12:17:33.209Z,39.80
2017-09-02T12:20:00.834Z,39.00
2017-09-02T12:22:28.508Z,35.60
2017-09-02T12:24:56.134Z,36.00
2017-09-02T12:27:23.754Z,36.50
2017-09-02T12:29:51.388Z,37.40
2017-09-02T12:32:19.023Z,39.30
2017-09-02T12:34:46.597Z,43.40
2017-09-02T12:37:14.985Z,45.20
2017-09-02T12:39:42.612Z,46.40
2017-09-02T12:42:11.193Z,43.20
2017-09-02T12:44:38.807Z,40.30
2017-09-02T12:47:06.468Z,39.00
2017-09-02T12:49:34.088Z,36.90
2017-09-02T12:52:01.700Z,37.90
2017-09-02T12:54:29.414Z,37.10
2017-09-02T12:56:57.037Z,39.90
2017-09-02T12:59:24.720Z,39.00
2017-09-02T13:01:52.337Z,39.40
2017-09-02T13:04:20.011Z,35.50
2017-09-02T13:06:47.684Z,32.70
2017-09-02T13:09:20.087Z,32.50
2017-09-02T13:11:47.694Z,34.70
2017-09-02T13:14:15.343Z,34.50
2017-09-02T13:16:43.940Z,37.00
2017-09-02T13:19:11.548Z,37.10
2017-09-02T13:21:39.155Z,34.20
2017-09-02T13:24:06.879Z,34.30
2017-09-02T13:26:34.509Z,29.50
2017-09-02T13:29:02.136Z,29.90
2017-09-02T13:31:29.748Z,32.50
2017-09-02T13:33:57.354Z,35.50
2017-09-02T13:36:25.011Z,36.80
2017-09-02T13:38:52.670Z,39.30
2017-09-02T13:41:21.153Z,41.00
2017-09-02T13:43:48.751Z,43.80
2017-09-02T13:46:16.367Z,45.90
2017-09-02T13:48:44.028Z,47.70
2017-09-02T13:51:12.234Z,47.30
2017-09-02T13:53:43.838Z,46.60
2017-09-02T13:56:11.566Z,44.50
2017-09-02T13:58:42.935Z,43.80
2017-09-02T14:01:10.560Z,41.80
2017-09-02T14:03:38.191Z,41.10
2017-09-02T14:06:05.811Z,43.90
2017-09-02T14:08:33.455Z,44.20
2017-09-02T14:11:01.076Z,42.80
2017-09-02T14:13:28.698Z,42.70
2017-09-02T14:15:56.291Z,44.10
2017-09-02T14:18:23.932Z,43.00
2017-09-02T14:20:51.526Z,42.70
2017-09-02T14:23:19.217Z,44.40
2017-09-02T14:25:46.880Z,44.20
2017-09-02T14:28:14.494Z,47.10
2017-09-02T14:30:42.166Z,47.90
2017-09-02T14:33:10.649Z,48.80
2017-09-02T14:35:38.229Z,48.90
2017-09-02T14:38:05.872Z,50.40
2017-09-02T14:40:33.478Z,52.00
2017-09-02T14:43:01.067Z,52.80
2017-09-02T14:45:29.570Z,53.20
2017-09-02T14:47:57.743Z,52.20
2017-09-02T14:50:25.355Z,52.80
2017-09-02T14:52:54.186Z,52.90
2017-09-02T14:55:21.776Z,54.10
2017-09-02T14:57:49.401Z,54.10
2017-09-02T15:00:17.026Z,55.00
2017-09-02T15:02:44.737Z,55.90
2017-09-02T15:05:12.368Z,55.50
2017-09-02T15:07:39.989Z,54.90
2017-09-02T15:10:07.594Z,55.70
2017-09-02T15:12:35.260Z,56.00
2017-09-02T15:15:02.864Z,57.00
2017-09-02T15:17:30.486Z,55.40
2017-09-02T15:19:58.176Z,56.00
2017-09-02T15:22:25.769Z,57.30
2017-09-02T15:24:53.399Z,57.60
2017-09-02T15:27:22.093Z,55.50
2017-09-02T15:29:50.044Z,56.00
2017-09-02T15:32:17.653Z,55.60
2017-09-02T15:34:45.266Z,55.00
2017-09-02T15:37:12.932Z,55.50
2017-09-02T15:39:40.714Z,57.20
2017-09-02T15:42:08.307Z,57.80
2017-09-02T15:44:35.925Z,57.80
2017-09-02T15:47:03.565Z,57.60
2017-09-02T15:49:31.871Z,57.60
2017-09-02T15:51:59.489Z,57.70
2017-09-02T15:54:27.136Z,57.00
2017-09-02T15:56:54.760Z,56.30
2017-09-02T15:59:23.145Z,55.10
2017-09-02T16:01:50.777Z,51.70
2017-09-02T16:04:18.464Z,53.10
2017-09-02T16:06:46.071Z,52.70
2017-09-02T16:09:14.214Z,53.80
2017-09-02T16:11:41.832Z,53.50
2017-09-02T16:14:09.425Z,52.90
2017-09-02T16:16:37.047Z,53.10
2017-09-02T16:19:04.644Z,52.00
2017-09-02T16:21:32.740Z,51.50
2017-09-02T16:24:00.362Z,50.40
2017-09-02T16:26:27.974Z,50.70
2017-09-02T16:28:56.521Z,52.60
2017-09-02T16:31:25.052Z,52.00
2017-09-02T16:33:52.668Z,51.40
2017-09-02T16:36:20.286Z,51.80
2017-09-02T16:38:47.872Z,50.20
2017-09-02T16:41:15.480Z,45.20
2017-09-02T16:43:43.097Z,42.20
2017-09-02T16:46:10.684Z,39.60
2017-09-02T16:48:38.306Z,37.80
2017-09-02T16:51:05.941Z,37.30
2017-09-02T16:53:33.674Z,36.10
2017-09-02T16:56:01.316Z,36.20
2017-09-02T16:58:28.959Z,35.40
2017-09-02T17:00:56.619Z,36.00
2017-09-02T17:03:24.274Z,36.80
2017-09-02T17:05:51.938Z,39.00
2017-09-02T17:08:19.600Z,42.00
2017-09-02T17:10:48.063Z,44.60
2017-09-02T17:13:15.720Z,46.80
2017-09-02T17:15:43.371Z,48.20
2017-09-02T17:18:11.022Z,50.50
2017-09-02T17:20:38.669Z,51.90
2017-09-02T17:23:06.317Z,52.30
2017-09-02T17:25:33.977Z,54.70
2017-09-02T17:28:02.511Z,54.50
2017-09-02T17:30:30.121Z,55.70
2017-09-02T17:32:57.771Z,55.40
2017-09-02T17:35:25.421Z,57.60
2017-09-02T17:37:53.021Z,58.60
2017-09-02T17:40:21.673Z,59.50
2017-09-02T17:42:49.352Z,58.60
2017-09-02T17:45:16.973Z,59.40
2017-09-02T17:47:44.594Z,59.60
2017-09-02T17:50:12.240Z,61.20
2017-09-02T17:52:39.831Z,61.70
2017-09-02T17:55:07.417Z,63.40
2017-09-02T17:57:35.055Z,62.80
2017-09-02T18:00:02.679Z,64.10
2017-09-02T18:02:30.290Z,65.00
2017-09-02T18:04:57.906Z,65.00
2017-09-02T18:07:25.787Z,66.20
2017-09-02T18:09:53.611Z,67.40
2017-09-02T18:12:21.267Z,67.00
2017-09-02T18:14:48.916Z,67.40
2017-09-02T18:17:16.789Z,67.80
2017-09-02T18:19:44.460Z,67.80
2017-09-02T18:22:12.085Z,68.30
2017-09-02T18:24:39.691Z,68.80
2017-09-02T18:27:07.330Z,69.50
2017-09-02T18:29:35.510Z,69.80
2017-09-02T18:32:03.125Z,70.00
2017-09-02T18:34:30.754Z,70.40
2017-09-02T18:36:58.423Z,70.00
2017-09-02T18:39:26.050Z,70.40
2017-09-02T18:41:53.657Z,71.60
2017-09-02T18:44:21.323Z,71.60
2017-09-02T18:46:48.959Z,72.80
2017-09-02T18:49:16.607Z,72.90
2017-09-02T18:51:44.979Z,73.60
2017-09-02T18:54:12.679Z,74.20
2017-09-02T18:56:40.303Z,75.10
2017-09-02T18:59:07.908Z,75.40
2017-09-02T19:01:35.556Z,76.00
2017-09-02T19:04:03.187Z,76.80
2017-09-02T19:06:31.729Z,77.30
2017-09-02T19:08:59.382Z,77.90
2017-09-02T19:14:36.178Z,78.70
2017-09-02T19:17:03.837Z,78.60
2017-09-02T19:19:31.482Z,79.40
2017-09-02T19:21:59.092Z,79.60
2017-09-02T19:24:26.691Z,79.70
2017-09-02T19:26:54.365Z,80.00
2017-09-02T19:29:21.974Z,80.10
2017-09-02T19:31:49.581Z,80.30
2017-09-02T19:34:17.186Z,80.40
2017-09-02T19:36:44.811Z,80.70
2017-09-02T19:39:12.394Z,80.90
2017-09-02T19:41:40.041Z,81.30
2017-09-02T19:44:07.642Z,81.90
2017-09-02T19:46:35.239Z,81.70
2017-09-02T19:49:02.866Z,81.90
2017-09-02T19:51:30.455Z,82.10
2017-09-02T19:53:58.055Z,82.10
2017-09-02T19:56:25.694Z,82.50
2017-09-02T19:58:53.324Z,82.30
2017-09-02T20:01:21.755Z,82.50
2017-09-02T20:03:49.380Z,83.40
2017-09-02T20:06:17.013Z,82.80
2017-09-02T20:08:44.655Z,82.90
2017-09-02T20:11:12.320Z,83.30
2017-09-02T20:13:40.866Z,83.40
2017-09-02T20:16:08.483Z,83.90
2017-09-02T20:21:26.411Z,84.40
2017-09-02T20:23:54.042Z,84.40
2017-09-02T20:26:21.766Z,84.60
2017-09-02T20:28:49.434Z,84.40
2017-09-02T20:31:17.054Z,84.40
2017-09-02T20:33:44.688Z,84.50
2017-09-02T20:36:12.346Z,84.60
2017-09-02T20:38:46.541Z,84.80
2017-09-02T20:41:14.203Z,85.00
2017-09-02T20:43:41.826Z,85.00
2017-09-02T20:46:09.429Z,85.00
2017-09-02T20:48:37.992Z,85.00
2017-09-02T20:51:05.827Z,85.20
2017-09-02T20:53:33.436Z,85.30
2017-09-02T20:56:01.043Z,85.40
2017-09-02T20:58:28.740Z,85.40
2017-09-02T21:00:56.341Z,86.10
2017-09-02T21:03:23.965Z,85.50
2017-09-02T21:05:51.613Z,85.60
2017-09-02T21:08:19.214Z,85.70
2017-09-02T21:10:46.833Z,85.70
2017-09-02T21:13:14.509Z,85.70
2017-09-02T21:15:42.160Z,86.40
2017-09-02T21:18:10.504Z,85.80
2017-09-02T21:20:38.110Z,85.80
2017-09-02T21:23:05.872Z,85.40
2017-09-02T21:25:33.476Z,85.70
2017-09-02T21:28:01.120Z,85.70
2017-09-02T21:30:28.732Z,85.90
2017-09-02T21:32:56.346Z,86.20
2017-09-02T21:35:23.955Z,86.20
2017-09-02T21:37:51.555Z,86.40
2017-09-02T21:40:19.934Z,86.40
2017-09-02T21:42:47.536Z,86.20
2017-09-02T21:45:15.156Z,86.00
2017-09-02T21:47:42.784Z,86.00
2017-09-02T21:50:10.384Z,86.00
2017-09-02T21:52:38.006Z,86.10
2017-09-02T21:55:06.222Z,86.40
2017-09-02T21:57:34.057Z,86.30
2017-09-02T22:00:01.651Z,86.40
2017-09-02T22:02:29.290Z,86.40
2017-09-02T22:04:56.956Z,86.40
2017-09-02T22:07:24.625Z,86.50
2017-09-02T22:09:52.270Z,86.70
2017-09-02T22:12:19.928Z,86.40
2017-09-02T22:14:47.578Z,86.40
2017-09-02T22:17:15.176Z,87.00
2017-09-02T22:19:42.799Z,87.00
2017-09-02T22:22:10.422Z,86.80
2017-09-02T22:24:38.016Z,86.40
2017-09-02T22:27:05.661Z,86.20
2017-09-02T22:29:33.307Z,86.30
2017-09-02T22:32:00.923Z,86.40
2017-09-02T22:34:28.530Z,86.30
2017-09-02T22:36:56.146Z,86.40
2017-09-02T22:39:23.740Z,86.60
2017-09-02T22:41:51.374Z,86.50
2017-09-02T22:44:18.964Z,86.80
2017-09-02T22:46:46.548Z,86.90
2017-09-02T22:49:14.177Z,86.90
2017-09-02T22:51:41.824Z,86.80
2017-09-02T22:54:09.443Z,87.10
2017-09-02T22:56:37.044Z,86.80
2017-09-02T22:59:04.668Z,86.90
2017-09-02T23:01:32.303Z,86.90
2017-09-02T23:03:59.908Z,87.10
2017-09-02T23:06:27.504Z,86.80
2017-09-02T23:08:55.119Z,86.80
2017-09-02T23:11:22.732Z,87.60
2017-09-02T23:13:50.374Z,87.30
2017-09-02T23:16:18.021Z,87.30
2017-09-02T23:18:45.637Z,87.20
2017-09-02T23:21:13.265Z,87.20
2017-09-02T23:23:40.951Z,86.80
2017-09-02T23:26:08.605Z,87.00
2017-09-02T23:28:36.222Z,87.10
2017-09-02T23:31:03.827Z,86.70
2017-09-02T23:33:31.515Z,86.90
2017-09-02T23:35:59.221Z,87.00
2017-09-02T23:38:26.830Z,87.10
2017-09-02T23:40:54.483Z,87.80
2017-09-02T23:43:22.097Z,87.50
2017-09-02T23:45:50.362Z,87.30
2017-09-02T23:48:18.008Z,87.40
2017-09-02T23:50:45.618Z,87.20
2017-09-02T23:53:13.235Z,87.30
2017-09-02T23:55:40.840Z,87.10
2017-09-02T23:58:08.450Z,87.10
